Time;durP1;ratioP1;P1;durP2;ratioP2;P2;SDS_P1;SDS_P2;PMS_P1;PMS_P2;Temp;Humidity;BMP_temperature;BMP_pressure;BME280_temperature;BME280_humidity;BME280_pressure;Samples;Min_cycle;Max_cycle;Signal;HPM_P1;HPM_P2
2021/07/06 00:00:24;;;;;;;3.13;0.73;;;19.30;89.80;;;;;;5096442;28;20047;-83
2021/07/06 00:02:51;;;;;;;1.60;1.02;;;19.30;90.00;;;;;;5110002;28;20081;-83
2021/07/06 00:05:18;;;;;;;1.75;0.90;;;19.30;90.00;;;;;;5107839;28;20035;-83
2021/07/06 00:07:46;;;;;;;1.58;0.77;;;19.30;90.00;;;;;;5109948;28;20062;-83
2021/07/06 00:10:12;;;;;;;2.47;0.95;;;19.30;90.00;;;;;;5098082;28;20457;-83
2021/07/06 00:12:38;;;;;;;0.95;0.77;;;19.30;90.00;;;;;;5090680;28;20036;-83
2021/07/06 00:15:07;;;;;;;1.75;0.65;;;19.30;90.00;;;;;;5102790;28;20499;-83
2021/07/06 00:17:33;;;;;;;4.75;0.88;;;19.30;89.90;;;;;;5088616;28;20056;-83
2021/07/06 00:19:58;;;;;;;1.33;0.80;;;19.30;89.90;;;;;;5101910;28;20055;-83
2021/07/06 00:22:24;;;;;;;1.88;0.90;;;19.30;89.80;;;;;;5085526;28;20540;-82
2021/07/06 00:24:50;;;;;;;3.38;1.00;;;19.30;89.80;;;;;;5088230;28;20067;-83
2021/07/06 00:27:16;;;;;;;2.42;0.65;;;19.30;89.90;;;;;;5089613;28;20028;-83
2021/07/06 00:29:42;;;;;;;3.10;0.82;;;19.30;89.80;;;;;;5059237;28;20086;-83
2021/07/06 00:32:08;;;;;;;1.30;0.60;;;19.30;89.80;;;;;;5076097;28;20028;-83
2021/07/06 00:34:34;;;;;;;5.55;0.95;;;19.30;89.80;;;;;;5091663;28;20028;-83
2021/07/06 00:37:00;;;;;;;1.30;0.80;;;19.30;90.00;;;;;;5078173;28;20514;-83
2021/07/06 00:39:26;;;;;;;1.13;0.60;;;19.30;90.00;;;;;;5083710;28;20032;-82
2021/07/06 00:41:51;;;;;;;1.42;0.80;;;19.30;90.10;;;;;;5083330;28;20035;-83
2021/07/06 00:44:20;;;;;;;0.60;0.55;;;19.30;90.10;;;;;;5074092;28;20067;-83
2021/07/06 00:46:46;;;;;;;1.17;0.70;;;19.30;90.20;;;;;;5093880;28;20095;-83
2021/07/06 00:49:12;;;;;;;4.47;0.70;;;19.20;90.10;;;;;;5076703;28;20469;-83
2021/07/06 00:51:38;;;;;;;1.85;0.55;;;19.20;90.10;;;;;;5088117;28;20028;-83
2021/07/06 00:54:05;;;;;;;2.17;0.60;;;19.20;89.90;;;;;;5079503;28;20035;-83
2021/07/06 00:56:31;;;;;;;2.05;0.50;;;19.30;89.80;;;;;;5071263;28;20606;-83
2021/07/06 00:58:56;;;;;;;5.47;0.70;;;19.30;89.60;;;;;;5077336;28;20028;-82
2021/07/06 01:01:22;;;;;;;2.80;0.60;;;19.30;89.50;;;;;;5075604;28;20040;-83
2021/07/06 01:03:48;;;;;;;2.40;0.43;;;19.30;89.40;;;;;;5073883;28;20034;-82
2021/07/06 01:06:14;;;;;;;5.97;0.70;;;19.30;89.30;;;;;;5077939;28;20380;-83
2021/07/06 01:08:45;;;;;;;2.15;0.43;;;19.20;89.20;;;;;;5081450;28;20480;-83
2021/07/06 01:11:12;;;;;;;0.70;0.43;;;19.30;89.20;;;;;;5077073;28;20056;-83
2021/07/06 01:13:38;;;;;;;1.23;0.60;;;19.30;89.30;;;;;;5095248;28;20020;-83
2021/07/06 01:16:04;;;;;;;2.85;0.70;;;19.30;89.20;;;;;;5095113;28;20513;-83
2021/07/06 01:18:30;;;;;;;2.75;0.90;;;19.30;89.20;;;;;;5087890;28;20052;-83
2021/07/06 01:20:57;;;;;;;2.88;0.60;;;19.30;89.20;;;;;;5080075;28;20047;-83
2021/07/06 01:23:26;;;;;;;1.05;0.60;;;19.20;89.90;;;;;;5080078;28;20115;-82
2021/07/06 01:25:54;;;;;;;2.17;0.40;;;19.20;89.60;;;;;;5086388;28;20036;-83
2021/07/06 01:28:20;;;;;;;1.73;0.60;;;19.20;89.40;;;;;;5080385;28;21807;-83
2021/07/06 01:30:46;;;;;;;0.75;0.73;;;19.20;89.50;;;;;;5081053;28;20036;-83
2021/07/06 01:33:23;;;;;;;1.35;0.85;;;19.20;89.80;;;;;;5073531;28;20024;-82
2021/07/06 01:35:57;;;;;;;2.35;0.80;;;19.20;90.00;;;;;;5083197;28;20512;-82
2021/07/06 01:38:23;;;;;;;3.08;0.73;;;19.20;90.00;;;;;;5094639;28;20044;-82
2021/07/06 01:40:49;;;;;;;2.08;0.75;;;19.10;90.00;;;;;;5093093;28;20059;-82
2021/07/06 01:43:15;;;;;;;1.77;0.60;;;19.10;90.00;;;;;;5084608;28;20055;-82
2021/07/06 01:45:41;;;;;;;1.17;0.77;;;19.00;90.10;;;;;;5076981;28;21935;-82
2021/07/06 01:48:07;;;;;;;1.00;0.90;;;19.00;90.30;;;;;;5094123;28;20531;-82
2021/07/06 01:50:38;;;;;;;2.30;0.70;;;19.00;90.40;;;;;;5081554;28;20028;-82
2021/07/06 01:53:07;;;;;;;4.03;0.75;;;18.90;90.40;;;;;;5074621;28;20066;-83
2021/07/06 01:55:37;;;;;;;2.97;1.00;;;18.90;90.50;;;;;;5076881;28;20027;-82
2021/07/06 01:58:05;;;;;;;1.00;0.73;;;18.90;90.60;;;;;;5089345;28;20520;-82
2021/07/06 02:00:35;;;;;;;1.15;0.80;;;18.80;90.60;;;;;;5094264;28;20028;-82
2021/07/06 02:03:03;;;;;;;3.15;1.00;;;18.80;90.70;;;;;;5088259;28;20388;-82
2021/07/06 02:05:29;;;;;;;4.07;1.00;;;18.80;90.80;;;;;;5079117;28;20043;-82
2021/07/06 02:07:55;;;;;;;3.65;0.90;;;18.80;90.70;;;;;;5083497;28;20024;-82
2021/07/06 02:10:22;;;;;;;2.05;0.80;;;18.80;90.80;;;;;;5076112;28;20123;-82
2021/07/06 02:12:47;;;;;;;1.08;0.77;;;18.80;90.80;;;;;;5085418;28;20028;-82
2021/07/06 02:15:15;;;;;;;2.17;1.00;;;18.80;90.80;;;;;;5084357;28;20419;-82
2021/07/06 02:17:45;;;;;;;1.10;0.60;;;18.80;90.80;;;;;;5083059;28;20429;-82
2021/07/06 02:20:13;;;;;;;3.17;0.90;;;18.80;90.80;;;;;;5080331;28;20020;-82
2021/07/06 02:22:40;;;;;;;1.92;0.80;;;18.80;90.80;;;;;;5082111;28;20020;-83
2021/07/06 02:25:08;;;;;;;0.88;0.80;;;18.70;91.10;;;;;;5083905;28;20369;-83
2021/07/06 02:27:33;;;;;;;4.97;0.75;;;18.70;90.80;;;;;;5089221;28;20036;-83
2021/07/06 02:29:59;;;;;;;3.45;0.85;;;18.70;90.80;;;;;;5077083;28;20029;-82
2021/07/06 02:32:25;;;;;;;1.95;0.80;;;18.70;90.80;;;;;;5073099;28;20028;-83
2021/07/06 02:34:51;;;;;;;3.38;0.90;;;18.70;90.80;;;;;;5074715;28;20032;-82
2021/07/06 02:37:17;;;;;;;0.80;0.77;;;18.70;90.80;;;;;;5083823;28;20421;-82
2021/07/06 02:39:43;;;;;;;0.85;0.70;;;18.60;90.70;;;;;;5074587;28;20089;-82
2021/07/06 02:42:09;;;;;;;1.23;0.70;;;18.70;90.70;;;;;;5086855;28;20036;-82
2021/07/06 02:44:34;;;;;;;1.83;0.80;;;18.70;90.70;;;;;;5093023;28;20108;-82
2021/07/06 02:47:00;;;;;;;3.13;0.63;;;18.70;90.60;;;;;;5090039;28;20035;-82
2021/07/06 02:49:26;;;;;;;2.80;0.70;;;18.70;90.60;;;;;;5081426;28;20031;-82
2021/07/06 02:51:51;;;;;;;0.60;0.60;;;18.70;90.70;;;;;;5085272;28;20064;-82
2021/07/06 02:54:17;;;;;;;4.13;0.80;;;18.60;90.60;;;;;;5086025;28;20024;-82
2021/07/06 02:56:43;;;;;;;3.15;1.00;;;18.60;90.60;;;;;;5080631;28;20032;-82
2021/07/06 02:59:08;;;;;;;3.50;0.82;;;18.60;90.60;;;;;;5077032;28;20028;-82
2021/07/06 03:01:34;;;;;;;2.33;0.68;;;18.60;90.60;;;;;;5086728;28;20036;-82
2021/07/06 03:04:00;;;;;;;2.22;0.90;;;18.60;90.60;;;;;;5076489;28;20016;-82
2021/07/06 03:06:28;;;;;;;2.08;0.63;;;18.70;90.70;;;;;;5082360;28;20032;-82
2021/07/06 03:08:55;;;;;;;;;;;18.60;90.60;;;;;;5074500;28;20043;-82
2021/07/06 03:11:24;;;;;;;4.95;0.93;;;18.60;90.50;;;;;;5072790;28;19920;-82
2021/07/06 03:13:50;;;;;;;1.52;0.80;;;18.60;90.70;;;;;;5078334;28;20032;-82
2021/07/06 03:16:15;;;;;;;3.38;0.75;;;18.50;90.70;;;;;;5063829;28;20512;-82
2021/07/06 03:18:41;;;;;;;1.95;0.90;;;18.50;90.70;;;;;;5076607;28;20477;-82
2021/07/06 03:21:06;;;;;;;3.90;0.65;;;18.60;90.70;;;;;;5091690;28;20025;-82
2021/07/06 03:23:32;;;;;;;2.75;0.95;;;18.60;90.70;;;;;;5076216;28;20518;-82
2021/07/06 03:25:58;;;;;;;6.50;0.95;;;18.60;90.70;;;;;;5083524;28;20047;-82
2021/07/06 03:28:24;;;;;;;2.97;0.70;;;18.60;91.00;;;;;;5072850;28;20500;-82
2021/07/06 03:30:50;;;;;;;5.50;1.00;;;18.60;90.60;;;;;;5078035;28;20028;-82
2021/07/06 03:33:15;;;;;;;2.05;0.90;;;18.60;90.50;;;;;;5079581;28;20027;-82
2021/07/06 03:35:41;;;;;;;2.03;0.82;;;18.60;90.80;;;;;;5079767;28;20498;-82
2021/07/06 03:38:07;;;;;;;1.98;0.50;;;18.60;90.40;;;;;;5093045;28;20020;-82
2021/07/06 03:40:34;;;;;;;2.60;0.90;;;18.70;90.40;;;;;;5091574;28;20060;-82
2021/07/06 03:43:00;;;;;;;1.60;0.80;;;18.70;90.40;;;;;;5081628;28;20028;-82
2021/07/06 03:45:27;;;;;;;2.08;0.80;;;18.70;90.30;;;;;;5063038;28;20508;-82
2021/07/06 03:47:53;;;;;;;4.93;0.90;;;18.70;90.20;;;;;;5085819;28;20032;-82
2021/07/06 03:50:21;;;;;;;4.00;0.70;;;18.70;90.10;;;;;;5067863;28;20035;-82
2021/07/06 03:52:49;;;;;;;1.85;0.98;;;18.80;90.10;;;;;;5076432;28;20020;-82
2021/07/06 03:55:15;;;;;;;1.38;0.63;;;18.80;90.10;;;;;;5080818;28;20039;-82
2021/07/06 03:57:42;;;;;;;3.72;0.70;;;18.80;90.00;;;;;;5088260;28;20020;-82
2021/07/06 04:00:11;;;;;;;6.65;0.80;;;18.80;89.70;;;;;;5083229;28;20473;-82
2021/07/06 04:02:37;;;;;;;;;;;18.80;89.60;;;;;;5088519;28;20419;-82
2021/07/06 04:05:08;;;;;;;2.70;0.60;;;18.80;89.30;;;;;;5087010;28;19934;-82
2021/07/06 04:07:34;;;;;;;4.47;1.00;;;18.80;89.50;;;;;;5083867;28;20033;-82
2021/07/06 04:09:59;;;;;;;0.80;0.70;;;18.90;89.40;;;;;;5095999;28;20044;-82
2021/07/06 04:12:25;;;;;;;1.92;0.80;;;18.90;89.10;;;;;;5090982;28;20028;-82
2021/07/06 04:14:51;;;;;;;1.80;0.70;;;18.90;88.80;;;;;;5074678;28;20016;-82
2021/07/06 04:17:17;;;;;;;1.80;0.80;;;19.00;88.40;;;;;;5094525;28;20120;-82
2021/07/06 04:19:43;;;;;;;2.72;0.70;;;19.00;88.30;;;;;;5085905;28;20092;-82
2021/07/06 04:22:08;;;;;;;2.05;0.60;;;19.00;88.30;;;;;;5083503;28;20491;-82
2021/07/06 04:24:34;;;;;;;2.53;0.73;;;19.00;88.10;;;;;;5079133;28;20062;-82
2021/07/06 04:27:00;;;;;;;5.10;0.98;;;19.00;88.00;;;;;;5076227;28;20054;-83
2021/07/06 04:29:26;;;;;;;5.60;0.90;;;19.10;87.90;;;;;;5076084;28;20036;-82
2021/07/06 04:31:53;;;;;;;2.58;0.80;;;19.10;87.80;;;;;;5074300;28;20396;-82
2021/07/06 04:34:20;;;;;;;3.92;0.98;;;19.20;87.70;;;;;;5076075;28;20024;-82
2021/07/06 04:36:45;;;;;;;2.75;0.70;;;19.20;87.50;;;;;;5082607;28;20032;-82
2021/07/06 04:39:11;;;;;;;6.00;1.05;;;19.20;87.50;;;;;;5090620;28;20051;-82
2021/07/06 04:41:37;;;;;;;2.80;0.80;;;19.20;87.50;;;;;;5078135;28;20496;-82
2021/07/06 04:44:02;;;;;;;3.17;0.93;;;19.20;87.40;;;;;;5091638;28;20074;-82
2021/07/06 04:46:28;;;;;;;1.90;0.98;;;19.20;87.50;;;;;;5081377;28;20551;-82
2021/07/06 04:48:53;;;;;;;7.25;0.85;;;19.20;87.60;;;;;;5095680;28;20028;-82
2021/07/06 04:51:19;;;;;;;3.03;0.90;;;19.20;87.80;;;;;;5083183;28;20465;-82
2021/07/06 04:53:45;;;;;;;3.65;0.90;;;19.20;87.90;;;;;;5075772;28;20044;-82
2021/07/06 04:56:11;;;;;;;3.95;0.88;;;19.30;87.80;;;;;;5083527;28;20027;-82
2021/07/06 04:58:37;;;;;;;3.40;1.00;;;19.30;87.90;;;;;;5095962;28;20024;-83
2021/07/06 05:01:04;;;;;;;3.95;1.17;;;19.30;87.80;;;;;;5086942;28;20028;-83
2021/07/06 05:03:32;;;;;;;5.28;1.10;;;19.30;87.60;;;;;;5078444;28;20035;-82
2021/07/06 05:05:59;;;;;;;3.92;1.15;;;19.40;87.30;;;;;;5083015;28;20111;-83
2021/07/06 05:08:25;;;;;;;3.63;1.40;;;19.40;87.00;;;;;;5087254;28;20122;-83
2021/07/06 05:10:51;;;;;;;1.77;0.90;;;19.50;86.70;;;;;;5095037;28;20123;-82
2021/07/06 05:13:17;;;;;;;3.83;1.50;;;19.50;86.60;;;;;;5094928;28;20024;-83
2021/07/06 05:15:43;;;;;;;3.40;1.10;;;19.50;86.60;;;;;;5095426;28;20495;-83
2021/07/06 05:18:09;;;;;;;2.70;1.00;;;19.50;86.50;;;;;;5095451;28;20044;-83
2021/07/06 05:20:36;;;;;;;1.65;0.90;;;19.60;86.50;;;;;;5080626;28;20036;-81
2021/07/06 05:23:01;;;;;;;3.53;1.00;;;19.60;86.30;;;;;;5074831;28;20037;-83
2021/07/06 05:25:27;;;;;;;6.68;1.10;;;19.70;86.90;;;;;;5074566;28;20504;-83
2021/07/06 05:27:52;;;;;;;3.20;1.20;;;19.70;86.20;;;;;;5074936;28;20423;-82
2021/07/06 05:30:19;;;;;;;5.75;1.33;;;19.70;86.20;;;;;;5074788;28;20067;-83
2021/07/06 05:32:45;;;;;;;6.80;1.48;;;19.70;86.20;;;;;;5075078;28;20028;-83
2021/07/06 05:35:11;;;;;;;2.88;1.05;;;19.70;86.10;;;;;;5073555;28;20027;-83
2021/07/06 05:37:37;;;;;;;4.30;1.10;;;19.80;86.20;;;;;;5074831;28;20029;-82
2021/07/06 05:40:05;;;;;;;8.32;1.42;;;19.80;86.30;;;;;;5075398;28;20024;-83
2021/07/06 05:42:34;;;;;;;4.07;1.10;;;19.80;86.20;;;;;;5074696;28;20378;-83
2021/07/06 05:45:00;;;;;;;2.55;0.88;;;19.80;86.00;;;;;;5074749;28;20266;-82
2021/07/06 05:47:25;;;;;;;4.32;1.27;;;19.80;86.00;;;;;;5074629;28;20032;-82
2021/07/06 05:49:51;;;;;;;1.98;1.02;;;19.80;86.60;;;;;;5072967;28;20481;-83
2021/07/06 05:52:17;;;;;;;1.98;0.90;;;19.90;86.20;;;;;;5074633;28;20031;-83
2021/07/06 05:54:42;;;;;;;3.38;0.90;;;19.80;86.10;;;;;;5073290;28;20020;-83
2021/07/06 05:57:08;;;;;;;2.33;1.17;;;19.90;86.10;;;;;;5073257;28;20107;-84
2021/07/06 05:59:34;;;;;;;2.00;0.85;;;19.80;86.10;;;;;;5065206;28;20032;-83
2021/07/06 06:01:59;;;;;;;2.78;0.80;;;19.90;86.30;;;;;;5094619;28;20020;-83
2021/07/06 06:04:26;;;;;;;3.67;1.00;;;19.80;86.20;;;;;;5073084;28;20094;-83
2021/07/06 06:06:52;;;;;;;2.53;0.90;;;19.80;86.00;;;;;;5073286;28;20025;-84
2021/07/06 06:09:18;;;;;;;2.65;0.90;;;19.80;86.10;;;;;;5073367;28;20482;-83
2021/07/06 06:11:44;;;;;;;2.03;0.80;;;19.80;86.50;;;;;;5074093;28;20408;-84
2021/07/06 06:14:09;;;;;;;2.25;0.80;;;19.80;86.70;;;;;;5073113;28;20457;-83
2021/07/06 06:16:35;;;;;;;3.47;1.05;;;19.80;86.40;;;;;;5072836;28;20020;-84
2021/07/06 06:19:01;;;;;;;1.65;0.70;;;19.80;86.10;;;;;;5072581;28;20074;-83
2021/07/06 06:21:27;;;;;;;2.47;0.75;;;19.80;85.90;;;;;;5073859;28;20036;-83
2021/07/06 06:23:53;;;;;;;2.88;0.80;;;19.80;86.10;;;;;;5073999;28;20524;-84
2021/07/06 06:26:19;;;;;;;3.15;0.82;;;19.80;86.50;;;;;;5073941;28;20504;-83
2021/07/06 06:28:45;;;;;;;1.15;0.70;;;19.80;86.60;;;;;;5073846;28;20029;-84
2021/07/06 06:31:11;;;;;;;1.98;0.90;;;19.80;87.50;;;;;;5072218;28;20028;-83
2021/07/06 06:33:36;;;;;;;1.38;0.68;;;19.80;87.00;;;;;;5072513;28;20035;-84
2021/07/06 06:36:02;;;;;;;1.63;0.70;;;19.80;86.90;;;;;;5072584;28;20043;-83
2021/07/06 06:38:28;;;;;;;2.58;0.90;;;19.80;86.90;;;;;;5072631;28;20024;-83
2021/07/06 06:40:53;;;;;;;2.08;1.00;;;19.90;86.90;;;;;;5073685;28;20033;-83
2021/07/06 06:43:19;;;;;;;2.65;0.70;;;19.90;86.70;;;;;;5072629;28;20033;-83
2021/07/06 06:45:48;;;;;;;2.17;0.80;;;19.90;86.10;;;;;;5072266;28;20443;-83
2021/07/06 06:48:13;;;;;;;2.97;0.90;;;19.90;86.00;;;;;;5072369;28;20496;-84
2021/07/06 06:50:39;;;;;;;1.10;0.50;;;20.00;86.10;;;;;;5073465;28;20044;-83
2021/07/06 06:53:05;;;;;;;2.80;0.60;;;20.00;86.30;;;;;;5072995;28;20044;-84
2021/07/06 06:55:31;;;;;;;1.48;0.75;;;20.00;86.30;;;;;;5093786;28;20495;-84
2021/07/06 06:57:56;;;;;;;1.13;0.60;;;20.00;86.10;;;;;;5093535;28;20038;-83
2021/07/06 07:00:22;;;;;;;5.10;0.70;;;20.00;85.70;;;;;;5093833;28;20027;-83
2021/07/06 07:02:50;;;;;;;1.75;0.75;;;20.10;85.60;;;;;;5093949;28;20036;-83
2021/07/06 07:05:16;;;;;;;3.47;0.60;;;20.10;85.20;;;;;;5092733;28;20024;-82
2021/07/06 07:07:43;;;;;;;0.85;0.52;;;20.10;84.30;;;;;;5074676;28;20047;-84
2021/07/06 07:10:11;;;;;;;3.60;1.00;;;20.10;83.90;;;;;;5092811;28;20044;-83
2021/07/06 07:12:37;;;;;;;0.35;0.30;;;20.20;83.50;;;;;;5090539;28;20032;-83
2021/07/06 07:15:04;;;;;;;2.08;0.50;;;20.10;82.50;;;;;;5052720;28;20108;-83
2021/07/06 07:17:29;;;;;;;0.93;0.60;;;20.20;82.40;;;;;;5069611;28;20028;-84
2021/07/06 07:19:55;;;;;;;1.48;0.50;;;20.10;82.30;;;;;;5088010;28;20024;-82
2021/07/06 07:22:20;;;;;;;0.93;0.60;;;20.10;81.90;;;;;;5078413;28;20025;-82
2021/07/06 07:24:46;;;;;;;1.45;0.40;;;20.10;81.10;;;;;;5075567;28;20028;-82
2021/07/06 07:27:12;;;;;;;0.60;0.30;;;20.10;81.50;;;;;;5085558;28;20036;-82
2021/07/06 07:29:38;;;;;;;3.15;0.40;;;20.10;80.70;;;;;;5063065;28;20087;-82
2021/07/06 07:32:05;;;;;;;1.52;0.40;;;20.10;80.60;;;;;;5074762;28;20099;-82
2021/07/06 07:34:33;;;;;;;1.80;0.38;;;20.10;80.10;;;;;;5077143;28;20024;-82
2021/07/06 07:36:59;;;;;;;3.88;0.50;;;20.10;80.70;;;;;;5092827;28;20025;-82
2021/07/06 07:39:25;;;;;;;2.22;0.70;;;20.10;80.10;;;;;;5105085;28;20116;-82
2021/07/06 07:41:51;;;;;;;3.90;0.47;;;20.10;79.10;;;;;;5090302;28;20116;-82
2021/07/06 07:44:17;;;;;;;0.50;0.30;;;20.10;79.50;;;;;;5076982;28;20111;-82
2021/07/06 07:46:43;;;;;;;1.23;0.40;;;20.10;79.70;;;;;;5075699;28;20469;-83
2021/07/06 07:49:09;;;;;;;2.65;0.55;;;20.20;80.10;;;;;;5077146;28;20052;-83
2021/07/06 07:51:35;;;;;;;0.55;0.50;;;20.20;79.90;;;;;;5077085;28;20412;-83
2021/07/06 07:54:00;;;;;;;1.35;0.40;;;20.30;79.70;;;;;;5076867;28;20020;-83
2021/07/06 07:56:26;;;;;;;1.65;0.40;;;20.30;79.20;;;;;;5075718;28;20028;-83
2021/07/06 07:58:52;;;;;;;0.57;0.32;;;20.30;78.60;;;;;;5076839;28;20052;-83
2021/07/06 08:01:18;;;;;;;2.40;0.45;;;20.30;77.40;;;;;;5076579;28;20024;-83
2021/07/06 08:03:44;;;;;;;2.95;0.47;;;20.30;77.80;;;;;;5091852;28;20066;-83
2021/07/06 08:06:10;;;;;;;0.88;0.40;;;20.40;78.50;;;;;;5095791;28;20078;-83
2021/07/06 08:08:36;;;;;;;0.85;0.40;;;20.40;78.40;;;;;;5097053;28;20431;-83
2021/07/06 08:11:02;;;;;;;2.47;0.40;;;20.50;77.20;;;;;;5095378;28;20056;-83
2021/07/06 08:13:28;;;;;;;1.17;0.45;;;20.50;77.50;;;;;;5096953;28;20032;-83
2021/07/06 08:15:54;;;;;;;3.80;0.63;;;20.50;78.00;;;;;;5096672;28;20020;-82
2021/07/06 08:18:20;;;;;;;4.13;0.50;;;20.60;76.90;;;;;;5077834;28;20100;-83
2021/07/06 08:20:47;;;;;;;1.98;0.50;;;20.60;77.10;;;;;;5076433;28;20067;-83
2021/07/06 08:23:13;;;;;;;2.33;0.40;;;20.60;75.80;;;;;;5074897;28;20029;-83
2021/07/06 08:25:39;;;;;;;2.10;0.40;;;20.50;75.60;;;;;;5076189;28;20116;-81
2021/07/06 08:28:05;;;;;;;5.35;0.50;;;20.60;77.00;;;;;;5076356;28;20044;-81
2021/07/06 08:30:31;;;;;;;4.28;0.65;;;20.70;77.40;;;;;;5078259;28;20025;-80
2021/07/06 08:32:57;;;;;;;2.40;0.38;;;20.70;75.70;;;;;;5089983;28;20511;-81
2021/07/06 08:35:23;;;;;;;0.98;0.40;;;20.70;76.40;;;;;;5091070;28;20028;-81
2021/07/06 08:37:48;;;;;;;3.47;0.60;;;20.80;75.50;;;;;;5095119;28;20036;-81
2021/07/06 08:40:15;;;;;;;6.63;0.60;;;21.10;75.20;;;;;;5096371;28;20043;-81
2021/07/06 08:42:41;;;;;;;0.90;0.40;;;21.30;75.20;;;;;;5095967;28;20032;-81
2021/07/06 08:45:08;;;;;;;2.92;0.77;;;21.60;74.10;;;;;;5096211;28;20024;-81
2021/07/06 08:47:35;;;;;;;2.10;0.52;;;21.60;73.90;;;;;;5096177;28;20055;-81
2021/07/06 08:50:05;;;;;;;2.72;0.35;;;21.60;73.30;;;;;;5096522;28;20029;-81
2021/07/06 08:52:31;;;;;;;1.65;0.40;;;21.50;72.30;;;;;;5094765;28;20024;-81
2021/07/06 08:54:57;;;;;;;2.00;0.40;;;21.30;73.20;;;;;;5095152;28;20488;-81
2021/07/06 08:57:22;;;;;;;5.15;0.60;;;21.20;73.70;;;;;;5096000;28;20028;-81
2021/07/06 08:59:49;;;;;;;2.35;0.50;;;21.00;72.80;;;;;;5095919;28;20078;-81
2021/07/06 09:02:20;;;;;;;1.15;0.40;;;21.00;73.80;;;;;;5095914;28;20121;-81
2021/07/06 09:04:54;;;;;;;3.22;0.50;;;21.10;73.80;;;;;;5095845;28;20054;-81
2021/07/06 09:07:21;;;;;;;4.57;0.63;;;21.20;73.70;;;;;;5093875;28;20024;-81
2021/07/06 09:09:49;;;;;;;7.07;0.60;;;21.20;73.70;;;;;;5095464;28;20032;-81
2021/07/06 09:12:16;;;;;;;5.07;0.60;;;21.40;74.10;;;;;;5094419;28;20067;-81
2021/07/06 09:14:44;;;;;;;4.95;0.50;;;21.60;73.30;;;;;;5094783;28;20066;-81
2021/07/06 09:17:15;;;;;;;2.05;0.68;;;21.80;71.20;;;;;;5095692;28;20016;-81
2021/07/06 09:19:46;;;;;;;7.15;0.55;;;21.80;70.40;;;;;;5095778;28;20028;-81
2021/07/06 09:22:16;;;;;;;3.55;0.40;;;21.80;69.10;;;;;;5095465;28;20020;-81
2021/07/06 09:24:44;;;;;;;2.88;0.50;;;21.80;70.00;;;;;;5093850;28;20473;-81
2021/07/06 09:27:26;;;;;;;6.93;0.63;;;21.80;71.30;;;;;;5094982;28;20024;-81
2021/07/06 09:30:14;;;;;;;0.57;0.22;;;22.00;70.80;;;;;;5082218;28;20117;-81
2021/07/06 09:32:51;;;;;;;3.70;0.75;;;22.20;70.00;;;;;;5074267;28;20527;-81
2021/07/06 09:35:23;;;;;;;2.78;0.50;;;22.30;69.20;;;;;;5074685;28;20064;-81
2021/07/06 09:38:00;;;;;;;1.65;0.40;;;22.30;68.10;;;;;;5074551;28;20370;-81
2021/07/06 09:40:35;;;;;;;3.40;0.50;;;22.20;68.50;;;;;;5074962;28;20443;-81
2021/07/06 09:43:21;;;;;;;1.85;0.60;;;22.40;68.80;;;;;;5073001;28;20029;-81
2021/07/06 09:46:04;;;;;;;2.78;0.43;;;22.50;68.10;;;;;;5074317;28;20032;-81
2021/07/06 09:48:35;;;;;;;2.90;0.63;;;22.40;67.90;;;;;;5074918;28;20736;-81
2021/07/06 09:51:24;;;;;;;3.10;0.60;;;22.50;69.30;;;;;;5074460;28;20036;-80
2021/07/06 09:53:51;;;;;;;4.18;0.70;;;22.70;69.50;;;;;;5074289;28;20032;-81
2021/07/06 09:56:19;;;;;;;2.35;0.40;;;22.90;68.30;;;;;;5074300;28;20527;-81
2021/07/06 09:59:03;;;;;;;2.63;0.77;;;22.90;67.00;;;;;;5074390;28;20135;-80
2021/07/06 10:01:29;;;;;;;4.53;0.85;;;23.00;67.50;;;;;;5074191;28;20480;-81
2021/07/06 10:03:57;;;;;;;5.43;0.60;;;23.20;67.90;;;;;;5074306;28;20028;-80
2021/07/06 10:06:27;;;;;;;3.78;0.57;;;23.20;66.30;;;;;;5074280;28;20035;-81
2021/07/06 10:08:54;;;;;;;1.75;0.40;;;23.30;65.60;;;;;;5074119;28;20029;-81
2021/07/06 10:11:21;;;;;;;6.53;0.60;;;23.30;65.50;;;;;;5074184;28;20083;-81
2021/07/06 10:13:47;;;;;;;3.53;0.52;;;23.30;64.70;;;;;;5074510;28;20028;-81
2021/07/06 10:16:15;;;;;;;3.60;0.60;;;23.10;62.90;;;;;;5074908;28;20103;-81
2021/07/06 10:18:40;;;;;;;1.40;0.50;;;23.00;63.90;;;;;;5074372;28;20016;-80
2021/07/06 10:21:06;;;;;;;5.75;0.73;;;23.10;65.30;;;;;;5074202;28;20408;-81
2021/07/06 10:23:35;;;;;;;3.83;0.73;;;23.20;65.10;;;;;;5074107;28;20443;-81
2021/07/06 10:26:04;;;;;;;5.72;0.43;;;23.40;63.80;;;;;;5073694;28;20457;-81
2021/07/06 10:28:31;;;;;;;2.58;0.45;;;23.70;64.00;;;;;;5073607;28;20028;-81
2021/07/06 10:31:15;;;;;;;2.45;0.40;;;24.00;62.10;;;;;;5074030;28;20028;-81
2021/07/06 10:33:42;;;;;;;5.57;0.70;;;24.10;61.60;;;;;;5086278;28;20089;-81
2021/07/06 10:36:11;;;;;;;4.13;0.65;;;24.20;62.10;;;;;;5074822;28;20020;-81
2021/07/06 10:38:41;;;;;;;5.45;0.60;;;24.30;60.80;;;;;;5072466;28;20422;-81
2021/07/06 10:41:08;;;;;;;8.50;0.85;;;24.40;59.50;;;;;;5083877;28;20040;-81
2021/07/06 10:43:42;;;;;;;5.22;0.70;;;24.40;58.80;;;;;;5094071;28;20079;-81
2021/07/06 10:46:19;;;;;;;5.25;0.70;;;24.40;57.90;;;;;;5093799;28;20028;-85
2021/07/06 10:49:03;;;;;;;6.40;0.95;;;24.40;59.50;;;;;;5093953;28;20031;-81
2021/07/06 10:51:38;;;;;;;6.47;0.63;;;24.30;58.10;;;;;;5053448;28;20039;-81
2021/07/06 10:54:09;;;;;;;3.90;0.50;;;24.30;59.30;;;;;;5053651;28;20048;-81
2021/07/06 10:56:42;;;;;;;4.95;0.73;;;24.40;59.90;;;;;;5053862;28;20427;-81
2021/07/06 10:59:36;;;;;;;5.80;0.50;;;24.50;60.10;;;;;;5053892;28;20420;-80
2021/07/06 11:02:06;;;;;;;6.03;0.80;;;24.40;57.10;;;;;;5053408;28;20032;-81
2021/07/06 11:04:42;;;;;;;6.03;0.77;;;24.20;56.70;;;;;;5052190;28;20056;-81
2021/07/06 11:07:27;;;;;;;5.82;0.70;;;24.00;59.00;;;;;;5053275;28;20023;-79
2021/07/06 11:09:53;;;;;;;7.70;0.60;;;23.70;59.30;;;;;;5072653;28;20066;-81
2021/07/06 11:12:23;;;;;;;2.40;0.50;;;23.40;59.30;;;;;;5073120;28;20041;-81
2021/07/06 11:15:16;;;;;;;2.72;0.50;;;23.30;60.00;;;;;;5073286;28;20108;-81
2021/07/06 11:17:46;;;;;;;5.13;0.50;;;23.30;60.40;;;;;;5073547;28;20487;-80
2021/07/06 11:20:16;;;;;;;1.40;0.45;;;23.30;60.70;;;;;;5073447;28;20094;-81
2021/07/06 11:22:55;;;;;;;5.05;0.77;;;23.20;61.80;;;;;;5073548;28;20032;-81
2021/07/06 11:25:27;;;;;;;3.55;0.65;;;23.30;60.10;;;;;;5073408;28;20137;-81
2021/07/06 11:28:25;;;;;;;8.45;0.90;;;23.40;61.20;;;;;;5073665;28;20017;-80
2021/07/06 11:30:53;;;;;;;2.95;0.60;;;23.50;60.60;;;;;;5073251;28;20035;-81
2021/07/06 11:33:32;;;;;;;3.38;0.60;;;23.40;61.20;;;;;;5073359;28;20043;-80
2021/07/06 11:36:03;;;;;;;3.75;0.80;;;23.70;61.40;;;;;;5073122;28;20380;-81
2021/07/06 11:38:41;;;;;;;3.78;0.70;;;23.90;60.90;;;;;;5073223;28;20111;-80
2021/07/06 11:41:10;;;;;;;2.47;0.60;;;24.30;60.50;;;;;;5073262;28;20428;-81
2021/07/06 11:43:36;;;;;;;1.92;0.63;;;24.70;60.80;;;;;;5072362;28;20054;-81
2021/07/06 11:46:10;;;;;;;10.93;0.95;;;24.90;58.10;;;;;;5054621;28;20068;-81
2021/07/06 11:48:38;;;;;;;2.95;0.57;;;25.10;57.40;;;;;;5073180;28;20046;-81
2021/07/06 11:51:06;;;;;;;4.40;1.03;;;25.20;57.30;;;;;;5073220;28;20028;-81
2021/07/06 11:53:40;;;;;;;9.95;0.93;;;25.20;56.70;;;;;;5073136;28;20024;-81
2021/07/06 11:56:09;;;;;;;5.18;0.70;;;25.00;56.80;;;;;;5073054;28;20033;-80
2021/07/06 11:58:36;;;;;;;6.35;0.60;;;24.70;58.70;;;;;;5052924;28;20079;-80
2021/07/06 12:01:20;;;;;;;6.57;0.70;;;24.40;58.90;;;;;;5051688;28;20440;-81
2021/07/06 12:03:47;;;;;;;3.78;0.70;;;24.10;59.90;;;;;;5053083;28;20412;-80
2021/07/06 12:06:18;;;;;;;2.90;0.65;;;23.80;59.90;;;;;;5052877;28;20478;-80
2021/07/06 12:08:47;;;;;;;6.82;0.80;;;23.60;62.70;;;;;;5053367;28;20024;-80
2021/07/06 12:11:26;;;;;;;4.60;0.80;;;23.80;62.20;;;;;;5052358;28;20470;-81
2021/07/06 12:13:53;;;;;;;;;;;24.10;61.10;;;;;;5069209;28;20025;-81
2021/07/06 12:16:22;;;;;;;4.60;0.70;;;24.40;60.80;;;;;;5052929;28;19992;-81
2021/07/06 12:19:10;;;;;;;3.70;0.85;;;24.60;59.80;;;;;;5055469;28;20018;-81
2021/07/06 12:21:40;;;;;;;7.30;0.80;;;24.70;58.60;;;;;;5055273;28;20033;-81
2021/07/06 12:24:11;;;;;;;6.35;1.10;;;24.50;58.30;;;;;;5056273;28;20103;-81
2021/07/06 12:26:42;;;;;;;7.10;1.00;;;24.20;59.50;;;;;;5071991;28;20029;-80
2021/07/06 12:29:08;;;;;;;3.70;0.88;;;24.00;59.00;;;;;;5076348;28;20024;-80
2021/07/06 12:31:36;;;;;;;7.50;0.95;;;23.90;60.40;;;;;;5075579;28;20555;-80
2021/07/06 12:34:12;;;;;;;3.60;0.80;;;23.90;61.00;;;;;;5085554;28;20074;-80
2021/07/06 12:36:40;;;;;;;10.80;0.90;;;24.00;60.20;;;;;;5095989;28;20020;-80
2021/07/06 12:39:22;;;;;;;9.20;1.00;;;24.00;58.80;;;;;;5096924;28;20036;-81
2021/07/06 12:42:10;;;;;;;4.63;1.20;;;24.00;58.60;;;;;;5089664;28;20033;-81
2021/07/06 12:44:38;;;;;;;10.65;1.27;;;23.80;58.40;;;;;;5074818;28;20025;-80
2021/07/06 12:47:40;;;;;;;5.53;0.90;;;23.70;59.30;;;;;;5076231;28;20047;-81
2021/07/06 12:50:14;;;;;;;5.70;1.08;;;23.50;59.30;;;;;;5076493;28;20031;-80
2021/07/06 12:52:51;;;;;;;8.18;1.20;;;23.50;61.10;;;;;;5075947;28;20070;-80